Time;durP1;ratioP1;P1;durP2;ratioP2;P2;SDS_P1;SDS_P2;PMS_P1;PMS_P2;Temp;Humidity;BMP_temperature;BMP_pressure;BME280_temperature;BME280_humidity;BME280_pressure;Samples;Min_cycle;Max_cycle;Signal;HPM_P1;HPM_P2
2022/12/03 00:00:13;;;;;;;;;;;19.60;43.80;;;;;;5062477;28;19912;-56
2022/12/03 00:02:39;;;;;;;;;;;19.60;43.80;;;;;;5061443;28;19913;-55
2022/12/03 00:05:05;;;;;;;;;;;19.60;43.80;;;;;;5064483;28;19917;-56
2022/12/03 00:07:30;;;;;;;;;;;19.60;43.90;;;;;;5064209;28;19912;-55
2022/12/03 00:09:55;;;;;;;;;;;19.60;43.90;;;;;;5062469;28;19924;-56
2022/12/03 00:12:21;;;;;;;;;;;19.50;43.90;;;;;;5066823;27;19940;-56
2022/12/03 00:14:46;;;;;;;;;;;19.60;44.00;;;;;;5070307;27;20003;-56
2022/12/03 00:17:12;;;;;;;;;;;19.50;43.90;;;;;;5063649;28;19965;-56
2022/12/03 00:19:37;;;;;;;;;;;19.50;44.00;;;;;;5063321;28;19932;-56
2022/12/03 00:22:03;;;;;;;;;;;19.50;43.80;;;;;;5045659;28;20019;-55
2022/12/03 00:24:28;;;;;;;;;;;19.50;43.80;;;;;;5058837;28;19968;-56
2022/12/03 00:26:54;;;;;;;;;;;19.50;43.80;;;;;;5061576;27;19920;-55
2022/12/03 00:29:19;;;;;;;;;;;19.50;43.90;;;;;;5060732;27;19919;-56
2022/12/03 00:31:44;;;;;;;;;;;19.50;44.00;;;;;;5063468;28;20011;-55
2022/12/03 00:34:10;;;;;;;;;;;19.50;43.80;;;;;;5062935;28;19917;-55
2022/12/03 00:36:35;;;;;;;;;;;19.50;43.90;;;;;;5058241;28;19977;-55
2022/12/03 00:39:01;;;;;;;;;;;19.40;44.00;;;;;;5062317;28;20012;-54
2022/12/03 00:41:26;;;;;;;;;;;19.40;43.90;;;;;;5063836;28;19913;-54
2022/12/03 00:43:56;;;;;;;;;;;19.40;43.90;;;;;;5056796;28;19923;-55
2022/12/03 00:46:22;;;;;;;;;;;19.40;43.90;;;;;;5051296;27;20074;-55
2022/12/03 00:48:47;;;;;;;;;;;19.40;43.90;;;;;;5060243;28;23000;-55
2022/12/03 00:51:13;;;;;;;;;;;19.40;43.90;;;;;;5060030;28;19912;-55
2022/12/03 00:53:38;;;;;;;;;;;19.40;43.90;;;;;;5062090;28;19955;-54
2022/12/03 00:56:04;;;;;;;;;;;19.40;43.70;;;;;;5063325;28;19919;-54
2022/12/03 00:58:29;;;;;;;;;;;19.40;43.80;;;;;;5058909;28;19917;-56
2022/12/03 01:00:55;;;;;;;;;;;19.40;43.80;;;;;;5058333;27;19941;-54
2022/12/03 01:03:20;;;;;;;;;;;19.40;43.70;;;;;;5058062;28;19917;-55
2022/12/03 01:05:46;;;;;;;;;;;19.30;43.60;;;;;;5062741;28;19916;-56
2022/12/03 01:08:11;;;;;;;;;;;19.30;43.80;;;;;;5062236;28;20003;-55
2022/12/03 01:10:36;;;;;;;;;;;19.30;43.80;;;;;;5061822;28;19917;-55
2022/12/03 01:13:02;;;;;;;;;;;19.30;43.70;;;;;;5056645;28;19940;-55
2022/12/03 01:15:27;;;;;;;;;;;19.30;43.80;;;;;;5068348;27;20015;-55
2022/12/03 01:17:53;;;;;;;;;;;19.30;43.80;;;;;;5059419;28;19916;-55
2022/12/03 01:20:18;;;;;;;;;;;19.30;43.80;;;;;;5061537;28;19934;-55
2022/12/03 01:22:44;;;;;;;;;;;19.30;43.80;;;;;;5067926;27;19913;-56
2022/12/03 01:25:09;;;;;;;;;;;19.30;43.80;;;;;;5071939;27;19952;-55
2022/12/03 01:27:35;;;;;;;;;;;19.30;43.80;;;;;;5058637;28;19925;-56
2022/12/03 01:30:00;;;;;;;;;;;19.30;43.80;;;;;;5061942;28;20287;-56
2022/12/03 01:32:25;;;;;;;;;;;19.30;43.80;;;;;;5058435;28;20335;-55
2022/12/03 01:34:51;;;;;;;;;;;19.30;43.80;;;;;;5061434;28;19941;-57
2022/12/03 01:37:17;;;;;;;;;;;19.30;43.80;;;;;;5067724;27;20403;-57
2022/12/03 01:39:43;;;;;;;;;;;19.30;43.80;;;;;;5060678;27;19917;-55
2022/12/03 01:42:11;;;;;;;;;;;19.20;43.70;;;;;;5080487;27;19996;-55
2022/12/03 01:44:36;;;;;;;;;;;19.20;43.70;;;;;;5058551;27;20002;-56
2022/12/03 01:47:02;;;;;;;;;;;19.20;43.70;;;;;;5043480;28;20393;-56
2022/12/03 01:49:29;;;;;;;;;;;19.20;43.70;;;;;;5042233;28;20003;-56
2022/12/03 01:51:54;;;;;;;;;;;19.20;43.70;;;;;;5058717;28;19923;-55
2022/12/03 01:54:21;;;;;;;;;;;19.20;43.70;;;;;;5061961;28;20351;-55
2022/12/03 01:56:46;;;;;;;;;;;19.20;43.70;;;;;;5045765;28;19916;-56
2022/12/03 01:59:18;;;;;;;;;;;19.20;43.70;;;;;;5043361;28;20426;-55
2022/12/03 02:01:44;;;;;;;;;;;19.20;43.60;;;;;;5046880;27;19962;-56
2022/12/03 02:04:10;;;;;;;;;;;19.20;43.70;;;;;;5060592;28;19920;-56
2022/12/03 02:06:36;;;;;;;;;;;19.20;43.70;;;;;;5058550;28;19916;-56
2022/12/03 02:09:01;;;;;;;;;;;19.20;43.70;;;;;;5058951;28;19957;-56
2022/12/03 02:11:28;;;;;;;;;;;19.20;43.70;;;;;;5058320;27;20280;-55
2022/12/03 02:14:01;;;;;;;;;;;19.20;43.70;;;;;;5045309;27;19972;-56
2022/12/03 02:16:26;;;;;;;;;;;19.20;43.70;;;;;;5057155;28;19921;-56
2022/12/03 02:18:52;;;;;;;;;;;19.10;43.70;;;;;;5060360;28;19913;-55
2022/12/03 02:21:25;;;;;;;;;;;19.10;43.70;;;;;;5054694;28;19959;-56
2022/12/03 02:24:00;;;;;;;;;;;19.10;43.70;;;;;;5041949;27;19920;-55
2022/12/03 02:26:26;;;;;;;;;;;19.10;43.70;;;;;;5060373;28;19962;-54
2022/12/03 02:28:51;;;;;;;;;;;19.10;43.70;;;;;;5060348;27;20428;-56
2022/12/03 02:31:16;;;;;;;;;;;19.20;43.70;;;;;;5055977;28;19916;-55
2022/12/03 02:33:42;;;;;;;;;;;19.30;43.80;;;;;;5060124;28;19923;-56
2022/12/03 02:36:07;;;;;;;;;;;19.30;43.80;;;;;;5063805;27;19913;-55
2022/12/03 02:38:33;;;;;;;;;;;19.20;44.40;;;;;;5059641;27;19912;-55
2022/12/03 02:40:59;;;;;;;;;;;19.10;44.00;;;;;;5060086;28;19917;-55
2022/12/03 02:43:25;;;;;;;;;;;19.10;44.20;;;;;;5059047;28;19913;-54
2022/12/03 02:45:51;;;;;;;;;;;19.10;44.00;;;;;;5059640;28;19913;-56
2022/12/03 02:48:17;;;;;;;;;;;19.10;43.80;;;;;;5060876;28;19917;-55
2022/12/03 02:50:44;;;;;;;;;;;19.20;43.80;;;;;;5045439;28;19921;-55
2022/12/03 02:53:13;;;;;;;;;;;19.20;43.80;;;;;;5061003;28;19920;-56
2022/12/03 02:55:39;;;;;;;;;;;19.20;43.70;;;;;;5045299;28;19921;-55
2022/12/03 02:58:05;;;;;;;;;;;19.30;43.50;;;;;;5059612;28;19917;-56
2022/12/03 03:00:30;;;;;;;;;;;19.30;43.50;;;;;;5054496;28;19920;-55
2022/12/03 03:02:55;;;;;;;;;;;19.40;43.40;;;;;;5058670;27;19944;-56
2022/12/03 03:05:21;;;;;;;;;;;19.40;43.20;;;;;;5059360;27;19916;-56
2022/12/03 03:07:47;;;;;;;;;;;19.40;43.20;;;;;;5041020;28;19917;-56
2022/12/03 03:10:13;;;;;;;;;;;19.50;43.00;;;;;;5058226;28;20731;-55
2022/12/03 03:12:38;;;;;;;;;;;19.50;43.60;;;;;;5056730;28;20023;-56
2022/12/03 03:15:04;;;;;;;;;;;19.50;42.90;;;;;;5059515;27;19921;-56
2022/12/03 03:17:30;;;;;;;;;;;19.60;42.80;;;;;;5059787;28;20023;-56
2022/12/03 03:19:55;;;;;;;;;;;19.70;42.60;;;;;;5058994;28;19917;-55
2022/12/03 03:22:20;;;;;;;;;;;19.70;42.50;;;;;;5056586;27;19913;-56
2022/12/03 03:24:46;;;;;;;;;;;19.70;42.50;;;;;;5059763;28;19917;-56
2022/12/03 03:27:11;;;;;;;;;;;19.70;42.30;;;;;;5053591;28;19947;-57
2022/12/03 03:29:37;;;;;;;;;;;19.70;42.30;;;;;;5058539;28;19920;-55
2022/12/03 03:32:02;;;;;;;;;;;19.80;42.30;;;;;;5049670;27;19919;-55
2022/12/03 03:34:28;;;;;;;;;;;19.80;42.10;;;;;;5063000;27;19912;-55
2022/12/03 03:36:54;;;;;;;;;;;19.80;42.00;;;;;;5044214;28;19969;-56
2022/12/03 03:39:19;;;;;;;;;;;19.80;41.90;;;;;;5062433;28;20379;-56
2022/12/03 03:41:45;;;;;;;;;;;19.80;41.80;;;;;;5059769;28;20340;-56
2022/12/03 03:44:10;;;;;;;;;;;19.90;41.90;;;;;;5060298;28;19936;-56
2022/12/03 03:46:36;;;;;;;;;;;19.90;41.80;;;;;;5073545;27;19939;-54
2022/12/03 03:49:02;;;;;;;;;;;19.90;41.70;;;;;;5063102;28;19936;-56
2022/12/03 03:51:27;;;;;;;;;;;19.90;41.60;;;;;;5063469;28;19965;-57
2022/12/03 03:53:53;;;;;;;;;;;19.90;41.60;;;;;;5062537;28;20456;-56
2022/12/03 03:56:18;;;;;;;;;;;19.90;41.50;;;;;;5058167;27;19916;-56
2022/12/03 03:58:44;;;;;;;;;;;20.00;41.60;;;;;;5043086;27;19917;-56
2022/12/03 04:01:10;;;;;;;;;;;19.90;41.40;;;;;;5060732;28;19912;-57
2022/12/03 04:03:35;;;;;;;;;;;20.00;41.50;;;;;;5057335;28;19920;-55
2022/12/03 04:06:01;;;;;;;;;;;20.00;41.40;;;;;;5062272;28;19913;-55
2022/12/03 04:08:26;;;;;;;;;;;20.00;41.40;;;;;;5058156;28;19916;-55
2022/12/03 04:13:36;;;;;;;;;;;20.00;41.30;;;;;;5059091;28;19931;-57
2022/12/03 04:16:01;;;;;;;;;;;20.00;41.30;;;;;;5056789;28;19913;-55
2022/12/03 04:18:42;;;;;;;;;;;20.00;41.20;;;;;;5063772;27;19917;-56
2022/12/03 04:23:52;;;;;;;;;;;20.00;41.20;;;;;;5059844;28;19927;-56
2022/12/03 04:29:01;;;;;;;;;;;20.00;41.20;;;;;;5059326;28;19965;-56
2022/12/03 04:36:55;;;;;;;;;;;20.00;41.10;;;;;;5059797;28;19961;-55
2022/12/03 04:39:20;;;;;;;;;;;20.00;41.10;;;;;;5057474;27;19912;-56
2022/12/03 04:41:46;;;;;;;;;;;20.00;41.00;;;;;;5061225;28;19961;-56
2022/12/03 04:46:55;;;;;;;;;;;20.00;41.10;;;;;;5070403;27;19924;-56
2022/12/03 04:49:21;;;;;;;;;;;20.00;41.10;;;;;;5056687;28;20003;-56
2022/12/03 04:51:46;;;;;;;;;;;20.00;41.10;;;;;;5059726;28;19917;-56
2022/12/03 04:54:12;;;;;;;;;;;20.00;41.00;;;;;;5060172;28;19923;-56
2022/12/03 04:56:37;;;;;;;;;;;20.00;41.00;;;;;;5060249;28;20259;-55
2022/12/03 04:59:02;;;;;;;;;;;20.00;41.00;;;;;;5058579;28;20396;-56
2022/12/03 05:01:28;;;;;;;;;;;20.00;41.10;;;;;;5071717;27;20442;-56
2022/12/03 05:03:53;;;;;;;;;;;20.00;41.00;;;;;;5057530;27;20379;-55
2022/12/03 05:06:19;;;;;;;;;;;20.00;40.90;;;;;;5052806;28;20348;-56
2022/12/03 05:08:44;;;;;;;;;;;20.00;40.90;;;;;;5056539;28;19919;-55
2022/12/03 05:11:10;;;;;;;;;;;20.10;40.90;;;;;;5063310;27;19941;-56
2022/12/03 05:13:35;;;;;;;;;;;20.00;40.90;;;;;;5056804;28;19923;-56
2022/12/03 05:16:00;;;;;;;;;;;20.00;40.80;;;;;;5059968;28;19971;-56
2022/12/03 05:18:26;;;;;;;;;;;20.00;40.80;;;;;;5054068;28;19927;-56
2022/12/03 05:20:51;;;;;;;;;;;20.00;40.90;;;;;;5069114;27;19918;-56
2022/12/03 05:23:17;;;;;;;;;;;20.00;40.80;;;;;;5061784;28;19912;-57
2022/12/03 05:25:42;;;;;;;;;;;20.00;40.80;;;;;;5058925;27;19951;-55
2022/12/03 05:28:08;;;;;;;;;;;20.00;40.80;;;;;;5059057;28;19921;-56
2022/12/03 05:30:33;;;;;;;;;;;20.00;40.80;;;;;;5056954;28;20007;-56
2022/12/03 05:32:59;;;;;;;;;;;20.00;40.90;;;;;;5065630;27;20454;-56
2022/12/03 05:35:24;;;;;;;;;;;20.00;40.80;;;;;;5059366;28;19912;-57
2022/12/03 05:37:50;;;;;;;;;;;20.00;40.80;;;;;;5058793;27;20015;-55
2022/12/03 05:40:15;;;;;;;;;;;20.00;40.80;;;;;;5054622;28;19921;-56
2022/12/03 05:42:53;;;;;;;;;;;20.00;40.90;;;;;;5058290;28;19913;-56
2022/12/03 05:45:25;;;;;;;;;;;19.90;40.70;;;;;;5056648;28;19923;-56
2022/12/03 05:47:51;;;;;;;;;;;20.00;40.80;;;;;;5055961;28;20475;-55
2022/12/03 05:50:16;;;;;;;;;;;20.00;40.80;;;;;;5060898;28;19951;-56
2022/12/03 05:52:42;;;;;;;;;;;20.00;40.70;;;;;;5059366;28;20309;-55
2022/12/03 05:55:07;;;;;;;;;;;20.00;40.80;;;;;;5060576;28;19913;-56
2022/12/03 05:57:33;;;;;;;;;;;20.00;40.80;;;;;;5058401;28;20368;-56
2022/12/03 05:59:58;;;;;;;;;;;20.00;40.70;;;;;;5056475;28;19927;-56
2022/12/03 06:02:24;;;;;;;;;;;20.00;40.70;;;;;;5064242;27;19920;-55
2022/12/03 06:04:49;;;;;;;;;;;20.00;40.80;;;;;;5075180;27;19916;-56
2022/12/03 06:07:15;;;;;;;;;;;20.00;40.70;;;;;;5060101;28;19959;-56
2022/12/03 06:09:40;;;;;;;;;;;19.90;40.70;;;;;;5059631;28;20380;-57
2022/12/03 06:12:07;;;;;;;;;;;19.90;40.70;;;;;;5053248;28;20364;-56
2022/12/03 06:14:34;;;;;;;;;;;19.90;40.60;;;;;;5059560;28;19923;-56
2022/12/03 06:17:00;;;;;;;;;;;19.90;40.60;;;;;;5060538;28;19920;-56
2022/12/03 06:19:25;;;;;;;;;;;20.00;40.60;;;;;;5051809;27;19928;-55
2022/12/03 06:21:50;;;;;;;;;;;19.90;40.70;;;;;;5054631;28;20055;-55
2022/12/03 06:24:16;;;;;;;;;;;19.90;40.60;;;;;;5059588;28;19917;-56
2022/12/03 06:26:41;;;;;;;;;;;19.90;40.60;;;;;;5058380;28;19912;-56
2022/12/03 06:29:07;;;;;;;;;;;20.00;40.60;;;;;;5060469;28;19916;-55
2022/12/03 06:31:32;;;;;;;;;;;19.90;40.60;;;;;;5057981;28;20429;-56
2022/12/03 06:33:58;;;;;;;;;;;19.90;40.60;;;;;;5058098;28;20374;-55
2022/12/03 06:36:25;;;;;;;;;;;19.90;40.60;;;;;;5056558;28;19964;-55
2022/12/03 06:38:50;;;;;;;;;;;19.90;40.60;;;;;;5054968;27;19913;-55
2022/12/03 06:41:16;;;;;;;;;;;19.90;40.60;;;;;;5057904;28;19916;-56
2022/12/03 06:43:41;;;;;;;;;;;19.90;40.60;;;;;;5055183;28;19913;-55
2022/12/03 06:46:07;;;;;;;;;;;19.90;40.50;;;;;;5056839;28;19992;-56
2022/12/03 06:48:32;;;;;;;;;;;19.90;40.50;;;;;;5058945;28;19952;-55
2022/12/03 06:50:58;;;;;;;;;;;20.00;40.60;;;;;;5061486;27;19913;-55
2022/12/03 06:53:23;;;;;;;;;;;19.90;40.50;;;;;;5058593;28;19921;-56
2022/12/03 06:55:49;;;;;;;;;;;19.90;40.40;;;;;;5058179;28;19920;-55
2022/12/03 06:58:14;;;;;;;;;;;19.90;40.50;;;;;;5058190;28;19957;-56
2022/12/03 07:00:40;;;;;;;;;;;19.90;40.40;;;;;;5055446;28;20387;-56
2022/12/03 07:03:05;;;;;;;;;;;19.90;40.50;;;;;;5060176;28;20320;-55
2022/12/03 07:05:30;;;;;;;;;;;19.90;40.40;;;;;;5056837;27;20008;-56
2022/12/03 07:07:56;;;;;;;;;;;19.90;40.40;;;;;;5057861;28;19928;-56
2022/12/03 07:10:21;;;;;;;;;;;19.90;40.30;;;;;;5055969;28;19920;-56
2022/12/03 07:12:47;;;;;;;;;;;19.90;40.30;;;;;;5056081;28;19921;-56
2022/12/03 07:15:12;;;;;;;;;;;19.90;40.30;;;;;;5061403;28;19912;-55
2022/12/03 07:17:37;;;;;;;;;;;19.90;40.40;;;;;;5059869;28;19917;-56
2022/12/03 07:20:03;;;;;;;;;;;19.90;40.40;;;;;;5056282;27;19931;-57
2022/12/03 07:22:29;;;;;;;;;;;19.90;40.30;;;;;;5059789;27;20808;-55
2022/12/03 07:24:54;;;;;;;;;;;19.90;40.30;;;;;;5061470;28;19920;-56
2022/12/03 07:27:20;;;;;;;;;;;19.90;40.30;;;;;;5058915;28;20011;-56
2022/12/03 07:29:45;;;;;;;;;;;19.90;40.30;;;;;;5063247;28;19913;-56
2022/12/03 07:32:11;;;;;;;;;;;19.90;40.30;;;;;;5057544;28;19921;-55
2022/12/03 07:34:36;;;;;;;;;;;19.90;41.00;;;;;;5071084;27;19921;-55
2022/12/03 07:37:01;;;;;;;;;;;19.90;40.30;;;;;;5063339;28;19913;-56
2022/12/03 07:39:27;;;;;;;;;;;19.90;40.30;;;;;;5064172;28;20333;-55
2022/12/03 07:41:52;;;;;;;;;;;19.90;40.30;;;;;;5059658;28;20317;-55
2022/12/03 07:44:18;;;;;;;;;;;19.80;40.20;;;;;;5062483;28;20265;-55
2022/12/03 07:46:43;;;;;;;;;;;19.90;40.40;;;;;;5062280;28;19967;-56
2022/12/03 07:49:10;;;;;;;;;;;19.80;40.30;;;;;;5062529;28;20459;-56
2022/12/03 07:51:36;;;;;;;;;;;19.80;40.30;;;;;;5061419;27;20314;-56
2022/12/03 07:54:01;;;;;;;;;;;19.80;40.30;;;;;;5061314;28;19942;-55
2022/12/03 07:56:27;;;;;;;;;;;19.80;40.20;;;;;;5062080;28;19917;-56
2022/12/03 07:58:52;;;;;;;;;;;19.80;40.30;;;;;;5059842;28;19966;-56
2022/12/03 08:01:18;;;;;;;;;;;19.80;40.30;;;;;;5061308;28;20003;-54
2022/12/03 08:03:43;;;;;;;;;;;19.80;40.30;;;;;;5062512;28;19913;-57
2022/12/03 08:06:09;;;;;;;;;;;19.80;40.30;;;;;;5060001;28;19989;-56
2022/12/03 08:08:34;;;;;;;;;;;19.80;40.40;;;;;;5058052;28;20380;-54
2022/12/03 08:11:00;;;;;;;;;;;19.80;40.30;;;;;;5061246;28;20738;-54
2022/12/03 08:13:26;;;;;;;;;;;19.80;40.20;;;;;;5052960;27;20011;-56
2022/12/03 08:15:51;;;;;;;;;;;19.80;40.30;;;;;;5056205;28;20003;-55
2022/12/03 08:18:18;;;;;;;;;;;19.80;40.10;;;;;;5061038;28;19923;-54
2022/12/03 08:20:44;;;;;;;;;;;19.80;40.20;;;;;;5060772;28;19921;-56
2022/12/03 08:23:27;;;;;;;;;;;19.90;40.30;;;;;;5059344;27;19928;-56
2022/12/03 08:25:52;;;;;;;;;;;19.80;40.20;;;;;;5067627;28;19956;-55
2022/12/03 08:28:19;;;;;;;;;;;19.80;40.20;;;;;;5060090;28;19959;-55
2022/12/03 08:30:47;;;;;;;;;;;19.80;40.20;;;;;;5058551;28;22757;-55
2022/12/03 08:33:21;;;;;;;;;;;19.90;40.30;;;;;;5059926;28;20253;-56
2022/12/03 08:35:48;;;;;;;;;;;19.80;40.10;;;;;;5055536;28;19913;-56
2022/12/03 08:38:14;;;;;;;;;;;19.80;40.00;;;;;;5061549;28;19933;-56
2022/12/03 08:40:40;;;;;;;;;;;19.80;40.10;;;;;;5057520;28;19913;-55
2022/12/03 08:43:12;;;;;;;;;;;19.80;40.10;;;;;;5056202;28;20066;-55
2022/12/03 08:45:38;;;;;;;;;;;19.80;40.10;;;;;;5044173;28;20368;-56
2022/12/03 08:48:18;;;;;;;;;;;19.80;40.10;;;;;;5062559;28;19917;-55
2022/12/03 08:50:44;;;;;;;;;;;19.80;40.10;;;;;;5057799;27;19917;-56
2022/12/03 08:53:12;;;;;;;;;;;19.80;40.10;;;;;;5061450;27;19932;-58
2022/12/03 08:55:38;;;;;;;;;;;19.80;40.10;;;;;;5060442;27;20011;-55
2022/12/03 08:58:12;;;;;;;;;;;19.80;40.00;;;;;;5060312;28;19960;-56
2022/12/03 09:00:38;;;;;;;;;;;19.80;40.00;;;;;;5048066;27;19913;-56
2022/12/03 09:03:03;;;;;;;;;;;19.80;40.10;;;;;;5054768;27;19924;-57
2022/12/03 09:05:29;;;;;;;;;;;19.80;40.00;;;;;;5057989;28;19917;-56
2022/12/03 09:07:55;;;;;;;;;;;19.80;40.10;;;;;;5056164;28;20280;-55
2022/12/03 09:10:20;;;;;;;;;;;19.80;40.00;;;;;;5059402;28;20651;-57
2022/12/03 09:12:46;;;;;;;;;;;19.80;40.00;;;;;;5055688;27;20277;-57
2022/12/03 09:15:11;;;;;;;;;;;19.80;40.00;;;;;;5059131;28;20420;-55
2022/12/03 09:17:36;;;;;;;;;;;19.80;40.10;;;;;;5060850;28;19967;-55
2022/12/03 09:20:02;;;;;;;;;;;19.80;40.10;;;;;;5061427;27;19921;-55
2022/12/03 09:22:28;;;;;;;;;;;19.80;40.10;;;;;;5062258;27;19920;-56
2022/12/03 09:24:53;;;;;;;;;;;19.80;40.00;;;;;;5058286;28;19999;-56
2022/12/03 09:27:21;;;;;;;;;;;19.80;40.00;;;;;;5059710;28;19921;-56
2022/12/03 09:29:46;;;;;;;;;;;19.80;40.00;;;;;;5057928;28;19915;-56
2022/12/03 09:32:12;;;;;;;;;;;19.90;40.00;;;;;;5054066;27;20551;-56
2022/12/03 09:34:37;;;;;;;;;;;19.80;39.90;;;;;;5055352;27;19912;-55
2022/12/03 09:37:03;;;;;;;;;;;19.80;40.00;;;;;;5055538;28;19916;-54
2022/12/03 09:39:28;;;;;;;;;;;19.80;39.90;;;;;;5058453;28;19916;-55
2022/12/03 09:41:54;;;;;;;;;;;19.80;39.90;;;;;;5060535;28;19912;-56
2022/12/03 09:44:19;;;;;;;;;;;19.90;40.10;;;;;;5056435;27;19944;-54
2022/12/03 09:46:44;;;;;;;;;;;19.80;40.00;;;;;;5060572;28;19938;-57
2022/12/03 09:49:10;;;;;;;;;;;19.80;40.00;;;;;;5058576;28;19961;-56
2022/12/03 09:51:36;;;;;;;;;;;19.80;40.00;;;;;;5059503;28;19921;-56
2022/12/03 09:54:01;;;;;;;;;;;19.80;40.00;;;;;;5047661;27;19923;-57
2022/12/03 09:56:27;;;;;;;;;;;19.80;40.00;;;;;;5058091;28;20003;-57
2022/12/03 09:58:53;;;;;;;;;;;19.80;40.00;;;;;;5064293;27;19919;-55
2022/12/03 10:01:18;;;;;;;;;;;19.80;40.00;;;;;;5059893;27;19909;-55
2022/12/03 10:03:45;;;;;;;;;;;19.80;40.00;;;;;;5065824;27;19921;-56
2022/12/03 10:06:12;;;;;;;;;;;19.80;40.00;;;;;;5057454;27;20332;-57
2022/12/03 10:08:38;;;;;;;;;;;19.80;40.00;;;;;;5042041;27;19966;-56
2022/12/03 10:11:03;;;;;;;;;;;19.90;40.00;;;;;;5042881;27;19920;-56
2022/12/03 10:13:29;;;;;;;;;;;19.90;39.90;;;;;;5056803;27;20038;-56
2022/12/03 10:15:55;;;;;;;;;;;19.90;39.90;;;;;;5047664;27;20000;-56
2022/12/03 10:18:21;;;;;;;;;;;19.90;40.00;;;;;;5059384;27;19988;-56
2022/12/03 10:20:47;;;;;;;;;;;19.90;39.90;;;;;;5061835;27;19925;-55
2022/12/03 10:23:25;;;;;;;;;;;19.90;39.90;;;;;;5059619;28;19913;-56
2022/12/03 10:26:07;;;;;;;;;;;19.90;39.90;;;;;;5015789;28;20397;-56
2022/12/03 10:28:33;;;;;;;;;;;19.90;40.00;;;;;;5060906;28;19963;-57
2022/12/03 10:30:59;;;;;;;;;;;19.90;40.00;;;;;;5060805;27;20321;-55
2022/12/03 10:33:28;;;;;;;;;;;19.90;40.00;;;;;;5057338;28;19924;-55
2022/12/03 10:35:54;;;;;;;;;;;19.90;39.90;;;;;;5056932;27;19920;-56
2022/12/03 10:38:21;;;;;;;;;;;19.80;39.90;;;;;;5059106;27;19912;-56
2022/12/03 10:40:46;;;;;;;;;;;19.80;39.90;;;;;;5041881;27;19913;-54
2022/12/03 10:43:13;;;;;;;;;;;19.80;40.00;;;;;;5054503;28;19920;-56
2022/12/03 10:45:38;;;;;;;;;;;19.70;40.00;;;;;;5061831;27;19909;-56
2022/12/03 10:48:13;;;;;;;;;;;19.70;39.90;;;;;;5054882;27;20004;-56
2022/12/03 10:50:52;;;;;;;;;;;19.70;40.10;;;;;;5040877;28;19913;-56
2022/12/03 10:53:18;;;;;;;;;;;19.70;40.30;;;;;;5055226;28;19920;-54
2022/12/03 10:55:44;;;;;;;;;;;19.70;40.30;;;;;;5040435;28;20406;-56
2022/12/03 10:58:22;;;;;;;;;;;19.70;40.20;;;;;;5069640;27;20392;-56
2022/12/03 11:00:48;;;;;;;;;;;19.70;40.30;;;;;;5056427;27;19977;-57
2022/12/03 11:03:21;;;;;;;;;;;19.70;40.30;;;;;;5052139;28;20454;-56
2022/12/03 11:05:46;;;;;;;;;;;19.70;40.30;;;;;;5039330;27;19913;-57
2022/12/03 11:08:19;;;;;;;;;;;19.70;40.50;;;;;;5057273;28;19924;-55
2022/12/03 11:10:45;;;;;;;;;;;19.70;40.30;;;;;;5056305;28;20014;-56
2022/12/03 11:13:29;;;;;;;;;;;19.70;40.30;;;;;;5055777;28;20430;-55
2022/12/03 11:15:54;;;;;;;;;;;19.70;40.30;;;;;;5056102;27;19917;-56
2022/12/03 11:18:43;;;;;;;;;;;19.70;40.10;;;;;;5061331;27;20822;-56
2022/12/03 11:21:09;;;;;;;;;;;19.70;40.00;;;;;;5058134;28;19927;-55
2022/12/03 11:23:44;;;;;;;;;;;19.70;40.30;;;;;;5051140;28;19963;-56
2022/12/03 11:26:10;;;;;;;;;;;19.70;40.00;;;;;;5056323;27;20406;-56
2022/12/03 11:28:36;;;;;;;;;;;19.80;40.00;;;;;;5055448;28;19913;-56
2022/12/03 11:31:10;;;;;;;;;;;19.80;39.90;;;;;;5057099;27;19956;-56
2022/12/03 11:33:37;;;;;;;;;;;19.80;40.00;;;;;;5059969;28;19916;-56
2022/12/03 11:36:02;;;;;;;;;;;19.80;39.70;;;;;;5058702;28;20011;-56
2022/12/03 11:38:37;;;;;;;;;;;19.70;39.90;;;;;;5055246;27;20432;-56
2022/12/03 11:41:09;;;;;;;;;;;19.70;39.90;;;;;;5054512;28;19961;-56
2022/12/03 11:43:54;;;;;;;;;;;19.80;39.80;;;;;;5056506;28;20007;-56
2022/12/03 11:46:20;;;;;;;;;;;19.80;39.90;;;;;;5065386;27;19975;-56
2022/12/03 11:48:46;;;;;;;;;;;19.80;39.60;;;;;;5063641;27;19917;-56
2022/12/03 11:51:15;;;;;;;;;;;19.80;39.60;;;;;;5055084;28;19913;-55
2022/12/03 11:53:40;;;;;;;;;;;19.90;39.80;;;;;;5043977;28;20504;-56
2022/12/03 11:56:07;;;;;;;;;;;19.80;39.70;;;;;;5052060;27;19916;-57
2022/12/03 11:58:33;;;;;;;;;;;19.80;39.70;;;;;;5060019;27;20000;-56
2022/12/03 12:00:59;;;;;;;;;;;19.80;39.50;;;;;;5060866;28;19960;-55
2022/12/03 12:03:26;;;;;;;;;;;19.80;39.60;;;;;;5065543;27;19913;-56
2022/12/03 12:06:05;;;;;;;;;;;19.80;39.60;;;;;;5061366;28;19913;-56
2022/12/03 12:08:30;;;;;;;;;;;19.80;39.70;;;;;;5055573;28;19920;-57
2022/12/03 12:10:56;;;;;;;;;;;19.80;39.90;;;;;;5059182;28;19912;-56
2022/12/03 12:13:30;;;;;;;;;;;19.80;40.20;;;;;;5058003;28;20370;-56
2022/12/03 12:16:05;;;;;;;;;;;19.80;40.40;;;;;;5063899;27;20359;-56
2022/12/03 12:18:34;;;;;;;;;;;19.80;40.30;;;;;;5056290;28;20333;-55
2022/12/03 12:21:18;;;;;;;;;;;19.80;40.30;;;;;;5061706;28;20016;-56
2022/12/03 12:23:44;;;;;;;;;;;19.80;40.40;;;;;;5063409;28;19943;-56
2022/12/03 12:26:09;;;;;;;;;;;19.80;40.60;;;;;;5061597;28;19917;-56
2022/12/03 12:28:34;;;;;;;;;;;19.80;40.90;;;;;;5059577;27;19920;-56
2022/12/03 12:31:00;;;;;;;;;;;19.80;40.70;;;;;;5061023;27;19912;-56
2022/12/03 12:33:25;;;;;;;;;;;19.80;40.80;;;;;;5057068;28;19917;-55
2022/12/03 12:35:51;;;;;;;;;;;19.80;40.60;;;;;;5056237;27;19935;-55
2022/12/03 12:38:17;;;;;;;;;;;19.80;40.70;;;;;;5061580;28;19913;-55
2022/12/03 12:40:44;;;;;;;;;;;19.80;40.90;;;;;;5055812;27;21130;-55
2022/12/03 12:43:09;;;;;;;;;;;19.80;40.80;;;;;;5058495;28;20287;-56
2022/12/03 12:45:36;;;;;;;;;;;19.80;40.70;;;;;;5057736;28;19920;-56
2022/12/03 12:48:13;;;;;;;;;;;19.80;40.60;;;;;;5055824;27;19917;-56
2022/12/03 12:50:39;;;;;;;;;;;19.80;41.00;;;;;;5062367;28;20360;-55
2022/12/03 12:53:31;;;;;;;;;;;19.80;41.10;;;;;;5057990;28;19927;-56
2022/12/03 12:55:57;;;;;;;;;;;19.80;41.20;;;;;;5068825;27;19911;-56
2022/12/03 12:58:22;;;;;;;;;;;19.80;41.40;;;;;;5056716;28;19935;-56
2022/12/03 13:01:09;;;;;;;;;;;19.80;41.50;;;;;;5071936;27;19913;-56
2022/12/03 13:03:35;;;;;;;;;;;19.80;41.60;;;;;;5045902;27;20007;-56
2022/12/03 13:06:01;;;;;;;;;;;19.80;41.60;;;;;;5058749;28;19920;-56
2022/12/03 13:08:28;;;;;;;;;;;19.80;41.60;;;;;;5062972;27;19920;-56
2022/12/03 13:10:54;;;;;;;;;;;19.80;41.80;;;;;;5039261;28;20364;-55
2022/12/03 13:13:20;;;;;;;;;;;19.80;41.90;;;;;;5056796;27;20304;-58
2022/12/03 13:16:12;;;;;;;;;;;19.80;42.20;;;;;;5061737;27;19919;-57
2022/12/03 13:18:39;;;;;;;;;;;19.80;42.00;;;;;;5056154;27;20403;-56
2022/12/03 13:21:18;;;;;;;;;;;19.80;42.20;;;;;;5056642;27;19921;-56
2022/12/03 13:23:44;;;;;;;;;;;19.80;42.20;;;;;;5061567;27;19912;-56
2022/12/03 13:26:19;;;;;;;;;;;19.80;42.40;;;;;;5054683;28;19939;-56
2022/12/03 13:28:44;;;;;;;;;;;19.80;42.50;;;;;;5054561;28;19924;-56
2022/12/03 13:31:26;;;;;;;;;;;19.80;42.50;;;;;;5059215;27;19913;-56
2022/12/03 13:33:51;;;;;;;;;;;19.80;42.60;;;;;;5059686;28;19916;-56
2022/12/03 13:36:18;;;;;;;;;;;19.80;43.10;;;;;;5070971;27;19965;-56
2022/12/03 13:38:43;;;;;;;;;;;19.80;43.20;;;;;;5056239;28;19927;-56
2022/12/03 13:42:37;;;;;;;;;;;19.80;43.00;;;;;;5059976;28;19917;-55
2022/12/03 13:43:57;;;;;;;;;;;19.90;43.30;;;;;;5054874;28;19913;-55
2022/12/03 13:46:22;;;;;;;;;;;19.80;43.40;;;;;;5058833;28;19999;-56
2022/12/03 13:48:48;;;;;;;;;;;19.90;43.50;;;;;;5061711;28;20454;-57
2022/12/03 13:51:18;;;;;;;;;;;19.90;43.60;;;;;;5058419;27;19977;-56
2022/12/03 13:53:44;;;;;;;;;;;19.90;43.50;;;;;;5042563;28;19927;-55
2022/12/03 13:56:28;;;;;;;;;;;19.90;43.40;;;;;;5056074;28;19916;-56
2022/12/03 13:58:54;;;;;;;;;;;19.90;43.40;;;;;;5058162;27;19963;-55
2022/12/03 14:01:19;;;;;;;;;;;19.90;43.20;;;;;;5057347;28;20384;-57
2022/12/03 14:03:45;;;;;;;;;;;19.90;43.10;;;;;;5056483;28;19966;-56
2022/12/03 14:06:10;;;;;;;;;;;19.90;43.20;;;;;;5061373;27;19912;-55
2022/12/03 14:08:36;;;;;;;;;;;19.90;43.30;;;;;;5053765;28;19913;-55
2022/12/03 14:11:02;;;;;;;;;;;19.90;43.20;;;;;;5055954;28;19917;-56
2022/12/03 14:13:27;;;;;;;;;;;19.80;43.10;;;;;;5058074;27;20818;-56
2022/12/03 14:15:53;;;;;;;;;;;19.80;43.20;;;;;;5056055;28;19932;-56
2022/12/03 14:18:18;;;;;;;;;;;19.90;43.10;;;;;;5061410;27;19912;-56
2022/12/03 14:20:43;;;;;;;;;;;19.90;43.30;;;;;;5059379;28;20007;-55
2022/12/03 14:23:09;;;;;;;;;;;19.90;43.60;;;;;;5057211;28;19969;-56
2022/12/03 14:25:34;;;;;;;;;;;19.90;43.60;;;;;;5057105;27;21038;-58
2022/12/03 14:28:00;;;;;;;;;;;19.90;43.50;;;;;;5052403;28;19921;-55
2022/12/03 14:30:25;;;;;;;;;;;19.90;43.30;;;;;;5055184;27;19913;-56